sensor_id;sensor_type;location;lat;lon;timestamp;temperature;humidity
69009;SHT31;56065;52.472;13.380;2023-07-09T00:01:17;21.54;60.62
69009;SHT31;56065;52.472;13.380;2023-07-09T00:03:44;21.51;60.84
69009;SHT31;56065;52.472;13.380;2023-07-09T00:06:11;21.50;60.75
69009;SHT31;56065;52.472;13.380;2023-07-09T00:08:40;21.46;61.03
69009;SHT31;56065;52.472;13.380;2023-07-09T00:11:07;21.42;61.37
69009;SHT31;56065;52.472;13.380;2023-07-09T00:13:32;21.40;61.07
69009;SHT31;56065;52.472;13.380;2023-07-09T00:16:01;21.37;60.80
69009;SHT31;56065;52.472;13.380;2023-07-09T00:18:27;21.33;61.20
69009;SHT31;56065;52.472;13.380;2023-07-09T00:20:53;21.35;61.09
69009;SHT31;56065;52.472;13.380;2023-07-09T00:23:19;21.33;61.10
69009;SHT31;56065;52.472;13.380;2023-07-09T00:25:44;21.29;61.48
69009;SHT31;56065;52.472;13.380;2023-07-09T00:28:14;21.27;61.88
69009;SHT31;56065;52.472;13.380;2023-07-09T00:30:40;21.29;61.83
69009;SHT31;56065;52.472;13.380;2023-07-09T00:33:10;21.26;61.88
69009;SHT31;56065;52.472;13.380;2023-07-09T00:35:37;21.23;62.04
69009;SHT31;56065;52.472;13.380;2023-07-09T00:38:05;21.22;61.59
69009;SHT31;56065;52.472;13.380;2023-07-09T00:40:30;21.20;61.46
69009;SHT31;56065;52.472;13.380;2023-07-09T00:42:59;21.22;62.15
69009;SHT31;56065;52.472;13.380;2023-07-09T00:45:26;21.15;62.28
69009;SHT31;56065;52.472;13.380;2023-07-09T00:48:01;21.18;61.75
69009;SHT31;56065;52.472;13.380;2023-07-09T00:50:35;21.13;61.75
69009;SHT31;56065;52.472;13.380;2023-07-09T00:53:25;21.09;61.84
69009;SHT31;56065;52.472;13.380;2023-07-09T00:56:01;21.09;62.15
69009;SHT31;56065;52.472;13.380;2023-07-09T00:58:29;21.06;61.86
69009;SHT31;56065;52.472;13.380;2023-07-09T01:01:00;21.10;61.92
69009;SHT31;56065;52.472;13.380;2023-07-09T01:03:48;21.06;62.16
69009;SHT31;56065;52.472;13.380;2023-07-09T01:06:20;21.05;62.15
69009;SHT31;56065;52.472;13.380;2023-07-09T01:08:48;21.07;61.98
69009;SHT31;56065;52.472;13.380;2023-07-09T01:11:20;21.05;62.41
69009;SHT31;56065;52.472;13.380;2023-07-09T01:13:54;21.03;62.84
69009;SHT31;56065;52.472;13.380;2023-07-09T01:16:23;21.02;62.37
69009;SHT31;56065;52.472;13.380;2023-07-09T01:18:50;21.03;62.11
69009;SHT31;56065;52.472;13.380;2023-07-09T01:21:15;20.99;62.32
69009;SHT31;56065;52.472;13.380;2023-07-09T01:23:46;20.96;62.66
69009;SHT31;56065;52.472;13.380;2023-07-09T01:26:17;20.94;62.45
69009;SHT31;56065;52.472;13.380;2023-07-09T01:28:43;20.91;62.44
69009;SHT31;56065;52.472;13.380;2023-07-09T01:31:12;20.94;62.72
69009;SHT31;56065;52.472;13.380;2023-07-09T01:33:38;20.91;62.56
69009;SHT31;56065;52.472;13.380;2023-07-09T01:36:08;20.88;62.52
69009;SHT31;56065;52.472;13.380;2023-07-09T01:38:34;20.86;62.60
69009;SHT31;56065;52.472;13.380;2023-07-09T01:41:00;20.88;62.72
69009;SHT31;56065;52.472;13.380;2023-07-09T01:43:26;20.88;62.73
69009;SHT31;56065;52.472;13.380;2023-07-09T01:45:52;20.86;62.58
69009;SHT31;56065;52.472;13.380;2023-07-09T01:48:18;20.85;62.78
69009;SHT31;56065;52.472;13.380;2023-07-09T01:50:46;20.82;63.13
69009;SHT31;56065;52.472;13.380;2023-07-09T01:53:15;20.79;63.55
69009;SHT31;56065;52.472;13.380;2023-07-09T01:55:42;20.71;63.62
69009;SHT31;56065;52.472;13.380;2023-07-09T01:58:07;20.69;63.73
69009;SHT31;56065;52.472;13.380;2023-07-09T02:00:34;20.67;63.49
69009;SHT31;56065;52.472;13.380;2023-07-09T02:03:00;20.67;63.62
69009;SHT31;56065;52.472;13.380;2023-07-09T02:05:29;20.67;63.61
69009;SHT31;56065;52.472;13.380;2023-07-09T02:07:55;20.67;63.72
69009;SHT31;56065;52.472;13.380;2023-07-09T02:10:20;20.61;63.70
69009;SHT31;56065;52.472;13.380;2023-07-09T02:12:46;20.58;64.17
69009;SHT31;56065;52.472;13.380;2023-07-09T02:15:12;20.52;64.28
69009;SHT31;56065;52.472;13.380;2023-07-09T02:17:38;20.51;64.14
69009;SHT31;56065;52.472;13.380;2023-07-09T02:20:04;20.51;64.08
69009;SHT31;56065;52.472;13.380;2023-07-09T02:22:32;20.47;64.34
69009;SHT31;56065;52.472;13.380;2023-07-09T02:24:57;20.45;64.34
69009;SHT31;56065;52.472;13.380;2023-07-09T02:27:23;20.44;64.43
69009;SHT31;56065;52.472;13.380;2023-07-09T02:29:48;20.45;64.68
69009;SHT31;56065;52.472;13.380;2023-07-09T02:32:19;20.43;64.74
69009;SHT31;56065;52.472;13.380;2023-07-09T02:34:44;20.40;64.86
69009;SHT31;56065;52.472;13.380;2023-07-09T02:37:14;20.38;64.74
69009;SHT31;56065;52.472;13.380;2023-07-09T02:39:40;20.40;64.95
69009;SHT31;56065;52.472;13.380;2023-07-09T02:42:07;20.34;65.43
69009;SHT31;56065;52.472;13.380;2023-07-09T02:44:33;20.30;65.33
69009;SHT31;56065;52.472;13.380;2023-07-09T02:46:58;20.24;65.37
69009;SHT31;56065;52.472;13.380;2023-07-09T02:49:24;20.17;65.65
69009;SHT31;56065;52.472;13.380;2023-07-09T02:51:49;20.12;65.83
69009;SHT31;56065;52.472;13.380;2023-07-09T02:54:14;20.06;66.17
69009;SHT31;56065;52.472;13.380;2023-07-09T02:56:40;20.03;66.33
69009;SHT31;56065;52.472;13.380;2023-07-09T02:59:05;20.06;66.01
69009;SHT31;56065;52.472;13.380;2023-07-09T03:01:30;20.06;66.88
69009;SHT31;56065;52.472;13.380;2023-07-09T03:03:59;20.01;67.14
69009;SHT31;56065;52.472;13.380;2023-07-09T03:06:27;20.03;67.18
69009;SHT31;56065;52.472;13.380;2023-07-09T03:08:53;20.03;67.44
69009;SHT31;56065;52.472;13.380;2023-07-09T03:11:20;20.00;67.82
69009;SHT31;56065;52.472;13.380;2023-07-09T03:13:46;19.94;67.85
69009;SHT31;56065;52.472;13.380;2023-07-09T03:16:12;19.93;67.78
69009;SHT31;56065;52.472;13.380;2023-07-09T03:18:37;19.93;67.90
69009;SHT31;56065;52.472;13.380;2023-07-09T03:21:03;19.87;68.08
69009;SHT31;56065;52.472;13.380;2023-07-09T03:23:28;19.87;68.03
69009;SHT31;56065;52.472;13.380;2023-07-09T03:25:55;19.87;67.98
69009;SHT31;56065;52.472;13.380;2023-07-09T03:28:20;19.89;68.04
69009;SHT31;56065;52.472;13.380;2023-07-09T03:30:47;19.89;68.35
69009;SHT31;56065;52.472;13.380;2023-07-09T03:33:15;19.89;68.31
69009;SHT31;56065;52.472;13.380;2023-07-09T03:35:41;19.87;68.35
69009;SHT31;56065;52.472;13.380;2023-07-09T03:38:08;19.92;68.26
69009;SHT31;56065;52.472;13.380;2023-07-09T03:40:34;19.96;67.92
69009;SHT31;56065;52.472;13.380;2023-07-09T03:42:59;19.97;68.10
69009;SHT31;56065;52.472;13.380;2023-07-09T03:45:25;19.97;68.53
69009;SHT31;56065;52.472;13.380;2023-07-09T03:47:50;20.00;68.29
69009;SHT31;56065;52.472;13.380;2023-07-09T03:50:16;20.04;69.09
69009;SHT31;56065;52.472;13.380;2023-07-09T03:52:42;20.01;69.38
69009;SHT31;56065;52.472;13.380;2023-07-09T03:55:07;20.03;68.54
69009;SHT31;56065;52.472;13.380;2023-07-09T03:57:33;20.07;68.78
69009;SHT31;56065;52.472;13.380;2023-07-09T03:59:59;20.13;68.16
69009;SHT31;56065;52.472;13.380;2023-07-09T04:02:25;20.17;68.45
69009;SHT31;56065;52.472;13.380;2023-07-09T04:04:50;20.26;68.05
69009;SHT31;56065;52.472;13.380;2023-07-09T04:07:16;20.27;67.84
69009;SHT31;56065;52.472;13.380;2023-07-09T04:09:42;20.30;67.61
69009;SHT31;56065;52.472;13.380;2023-07-09T04:12:09;20.38;67.00
69009;SHT31;56065;52.472;13.380;2023-07-09T04:14:34;20.43;66.96
69009;SHT31;56065;52.472;13.380;2023-07-09T04:17:00;20.47;66.99
69009;SHT31;56065;52.472;13.380;2023-07-09T04:19:25;20.52;67.21
69009;SHT31;56065;52.472;13.380;2023-07-09T04:21:51;20.58;67.08
69009;SHT31;56065;52.472;13.380;2023-07-09T04:24:17;20.64;67.24
69009;SHT31;56065;52.472;13.380;2023-07-09T04:26:43;20.69;66.77
69009;SHT31;56065;52.472;13.380;2023-07-09T04:29:09;20.76;66.63
69009;SHT31;56065;52.472;13.380;2023-07-09T04:31:35;20.84;67.09
69009;SHT31;56065;52.472;13.380;2023-07-09T04:34:01;20.86;66.62
69009;SHT31;56065;52.472;13.380;2023-07-09T04:36:26;20.94;66.27
69009;SHT31;56065;52.472;13.380;2023-07-09T04:38:52;21.02;66.75
69009;SHT31;56065;52.472;13.380;2023-07-09T04:41:17;21.03;66.64
69009;SHT31;56065;52.472;13.380;2023-07-09T04:43:43;21.12;66.01
69009;SHT31;56065;52.472;13.380;2023-07-09T04:46:08;21.26;66.12
69009;SHT31;56065;52.472;13.380;2023-07-09T04:48:33;21.33;66.17
69009;SHT31;56065;52.472;13.380;2023-07-09T04:50:59;21.37;65.85
69009;SHT31;56065;52.472;13.380;2023-07-09T04:53:25;21.47;65.76
69009;SHT31;56065;52.472;13.380;2023-07-09T04:55:50;21.51;65.73
69009;SHT31;56065;52.472;13.380;2023-07-09T04:58:16;21.63;65.57
69009;SHT31;56065;52.472;13.380;2023-07-09T05:00:42;21.68;65.42
69009;SHT31;56065;52.472;13.380;2023-07-09T05:03:08;21.78;65.43
69009;SHT31;56065;52.472;13.380;2023-07-09T05:05:33;21.84;65.34
69009;SHT31;56065;52.472;13.380;2023-07-09T05:07:59;21.91;65.28
69009;SHT31;56065;52.472;13.380;2023-07-09T05:10:24;21.98;64.78
69009;SHT31;56065;52.472;13.380;2023-07-09T05:12:51;21.98;66.02
69009;SHT31;56065;52.472;13.380;2023-07-09T05:15:18;22.08;64.04
69009;SHT31;56065;52.472;13.380;2023-07-09T05:17:44;22.26;63.77
69009;SHT31;56065;52.472;13.380;2023-07-09T05:20:09;22.32;63.75
69009;SHT31;56065;52.472;13.380;2023-07-09T05:22:35;22.45;63.39
69009;SHT31;56065;52.472;13.380;2023-07-09T05:25:00;22.57;63.64
69009;SHT31;56065;52.472;13.380;2023-07-09T05:27:26;22.70;63.31
69009;SHT31;56065;52.472;13.380;2023-07-09T05:29:51;22.79;62.57
69009;SHT31;56065;52.472;13.380;2023-07-09T05:32:16;22.83;63.30
69009;SHT31;56065;52.472;13.380;2023-07-09T05:34:42;22.97;62.22
69009;SHT31;56065;52.472;13.380;2023-07-09T05:37:07;23.08;61.37
69009;SHT31;56065;52.472;13.380;2023-07-09T05:39:34;23.17;61.67
69009;SHT31;56065;52.472;13.380;2023-07-09T05:41:59;23.30;61.30
69009;SHT31;56065;52.472;13.380;2023-07-09T05:44:25;23.33;61.56
69009;SHT31;56065;52.472;13.380;2023-07-09T05:46:50;23.38;61.00
69009;SHT31;56065;52.472;13.380;2023-07-09T05:49:15;23.57;60.23
69009;SHT31;56065;52.472;13.380;2023-07-09T05:51:41;23.61;59.63
69009;SHT31;56065;52.472;13.380;2023-07-09T05:54:07;23.65;60.37
69009;SHT31;56065;52.472;13.380;2023-07-09T05:56:33;23.71;60.88
69009;SHT31;56065;52.472;13.380;2023-07-09T05:58:58;23.82;60.20
69009;SHT31;56065;52.472;13.380;2023-07-09T06:01:24;23.99;59.33
69009;SHT31;56065;52.472;13.380;2023-07-09T06:03:49;24.12;59.81
69009;SHT31;56065;52.472;13.380;2023-07-09T06:06:15;24.23;58.91
69009;SHT31;56065;52.472;13.380;2023-07-09T06:08:41;24.32;58.81
69009;SHT31;56065;52.472;13.380;2023-07-09T06:11:06;24.40;58.83
69009;SHT31;56065;52.472;13.380;2023-07-09T06:13:32;24.44;58.91
69009;SHT31;56065;52.472;13.380;2023-07-09T06:15:59;24.57;57.48
69009;SHT31;56065;52.472;13.380;2023-07-09T06:18:25;24.70;58.24
69009;SHT31;56065;52.472;13.380;2023-07-09T06:20:56;24.84;58.60
69009;SHT31;56065;52.472;13.380;2023-07-09T06:23:22;25.10;58.43
69009;SHT31;56065;52.472;13.380;2023-07-09T06:25:48;25.69;57.94
69009;SHT31;56065;52.472;13.380;2023-07-09T06:28:18;26.34;56.36
69009;SHT31;56065;52.472;13.380;2023-07-09T06:30:47;26.99;55.88
69009;SHT31;56065;52.472;13.380;2023-07-09T06:33:14;27.54;54.06
69009;SHT31;56065;52.472;13.380;2023-07-09T06:35:49;28.42;53.23
69009;SHT31;56065;52.472;13.380;2023-07-09T06:38:15;29.17;51.47
69009;SHT31;56065;52.472;13.380;2023-07-09T06:40:41;29.66;50.72
69009;SHT31;56065;52.472;13.380;2023-07-09T06:43:07;30.20;50.97
69009;SHT31;56065;52.472;13.380;2023-07-09T06:45:32;30.91;49.74
69009;SHT31;56065;52.472;13.380;2023-07-09T06:48:02;31.56;49.31
69009;SHT31;56065;52.472;13.380;2023-07-09T06:50:27;32.16;48.37
69009;SHT31;56065;52.472;13.380;2023-07-09T06:52:53;32.76;48.20
69009;SHT31;56065;52.472;13.380;2023-07-09T06:55:18;33.33;45.77
69009;SHT31;56065;52.472;13.380;2023-07-09T06:57:43;33.91;45.87
69009;SHT31;56065;52.472;13.380;2023-07-09T07:00:09;34.31;45.34
69009;SHT31;56065;52.472;13.380;2023-07-09T07:02:35;34.68;43.37
69009;SHT31;56065;52.472;13.380;2023-07-09T07:05:01;34.72;42.83
69009;SHT31;56065;52.472;13.380;2023-07-09T07:07:26;34.37;44.73
69009;SHT31;56065;52.472;13.380;2023-07-09T07:09:51;34.88;44.18
69009;SHT31;56065;52.472;13.380;2023-07-09T07:12:26;35.67;43.32
69009;SHT31;56065;52.472;13.380;2023-07-09T07:14:53;36.38;42.80
69009;SHT31;56065;52.472;13.380;2023-07-09T07:17:18;36.32;42.44
69009;SHT31;56065;52.472;13.380;2023-07-09T07:19:44;37.08;42.18
69009;SHT31;56065;52.472;13.380;2023-07-09T07:22:09;37.88;41.41
69009;SHT31;56065;52.472;13.380;2023-07-09T07:24:34;37.75;41.10
69009;SHT31;56065;52.472;13.380;2023-07-09T07:27:00;38.26;40.37
69009;SHT31;56065;52.472;13.380;2023-07-09T07:29:25;38.67;40.18
69009;SHT31;56065;52.472;13.380;2023-07-09T07:31:50;39.14;39.76
69009;SHT31;56065;52.472;13.380;2023-07-09T07:34:16;39.17;40.04
69009;SHT31;56065;52.472;13.380;2023-07-09T07:36:41;39.82;38.12
69009;SHT31;56065;52.472;13.380;2023-07-09T07:39:06;39.45;39.80
69009;SHT31;56065;52.472;13.380;2023-07-09T07:41:32;40.05;38.94
69009;SHT31;56065;52.472;13.380;2023-07-09T07:43:57;39.72;37.91
69009;SHT31;56065;52.472;13.380;2023-07-09T07:46:22;40.20;37.94
69009;SHT31;56065;52.472;13.380;2023-07-09T07:48:48;40.03;38.64
69009;SHT31;56065;52.472;13.380;2023-07-09T07:51:13;40.57;37.88
69009;SHT31;56065;52.472;13.380;2023-07-09T07:53:39;40.99;38.35
69009;SHT31;56065;52.472;13.380;2023-07-09T07:56:04;41.90;36.98
69009;SHT31;56065;52.472;13.380;2023-07-09T07:58:30;42.10;36.65
69009;SHT31;56065;52.472;13.380;2023-07-09T08:00:57;42.34;36.88
69009;SHT31;56065;52.472;13.380;2023-07-09T08:03:23;42.16;36.68
69009;SHT31;56065;52.472;13.380;2023-07-09T08:05:51;42.66;36.50
69009;SHT31;56065;52.472;13.380;2023-07-09T08:08:17;42.43;36.51
69009;SHT31;56065;52.472;13.380;2023-07-09T08:10:43;43.13;35.61
69009;SHT31;56065;52.472;13.380;2023-07-09T08:13:08;42.52;36.59
69009;SHT31;56065;52.472;13.380;2023-07-09T08:15:34;42.72;36.69
69009;SHT31;56065;52.472;13.380;2023-07-09T08:18:00;43.67;35.31
69009;SHT31;56065;52.472;13.380;2023-07-09T08:20:25;44.31;35.55
69009;SHT31;56065;52.472;13.380;2023-07-09T08:22:51;44.36;34.15
69009;SHT31;56065;52.472;13.380;2023-07-09T08:25:16;44.07;35.25
69009;SHT31;56065;52.472;13.380;2023-07-09T08:27:41;43.63;34.72
69009;SHT31;56065;52.472;13.380;2023-07-09T08:30:07;43.63;34.25
69009;SHT31;56065;52.472;13.380;2023-07-09T08:32:33;44.07;33.48
69009;SHT31;56065;52.472;13.380;2023-07-09T08:34:58;44.29;33.82
69009;SHT31;56065;52.472;13.380;2023-07-09T08:37:24;44.92;33.83
69009;SHT31;56065;52.472;13.380;2023-07-09T08:39:49;45.62;32.96
69009;SHT31;56065;52.472;13.380;2023-07-09T08:42:21;45.56;33.42
69009;SHT31;56065;52.472;13.380;2023-07-09T08:44:59;45.54;33.12
69009;SHT31;56065;52.472;13.380;2023-07-09T08:47:32;45.98;32.96
69009;SHT31;56065;52.472;13.380;2023-07-09T08:50:02;46.29;33.09
69009;SHT31;56065;52.472;13.380;2023-07-09T08:52:35;46.43;31.87
69009;SHT31;56065;52.472;13.380;2023-07-09T08:55:29;46.28;31.24
69009;SHT31;56065;52.472;13.380;2023-07-09T08:58:09;47.14;31.47
69009;SHT31;56065;52.472;13.380;2023-07-09T09:00:58;46.93;31.92
69009;SHT31;56065;52.472;13.380;2023-07-09T09:03:37;46.85;32.16
69009;SHT31;56065;52.472;13.380;2023-07-09T09:06:16;46.67;30.98
69009;SHT31;56065;52.472;13.380;2023-07-09T09:14:44;46.62;31.18
69009;SHT31;56065;52.472;13.380;2023-07-09T09:17:17;47.40;31.26
69009;SHT31;56065;52.472;13.380;2023-07-09T09:22:13;47.34;30.40
69009;SHT31;56065;52.472;13.380;2023-07-09T09:24:57;47.44;30.25
69009;SHT31;56065;52.472;13.380;2023-07-09T09:27:23;48.11;31.08
69009;SHT31;56065;52.472;13.380;2023-07-09T09:29:48;48.52;31.27
69009;SHT31;56065;52.472;13.380;2023-07-09T09:32:24;48.19;29.31
69009;SHT31;56065;52.472;13.380;2023-07-09T09:34:50;48.55;28.88
69009;SHT31;56065;52.472;13.380;2023-07-09T09:39:48;48.14;30.45
69009;SHT31;56065;52.472;13.380;2023-07-09T09:42:14;48.67;31.27
69009;SHT31;56065;52.472;13.380;2023-07-09T09:44:44;48.97;28.61
69009;SHT31;56065;52.472;13.380;2023-07-09T09:47:10;48.60;28.75
69009;SHT31;56065;52.472;13.380;2023-07-09T09:49:43;48.46;28.96
69009;SHT31;56065;52.472;13.380;2023-07-09T09:52:17;49.06;28.68
69009;SHT31;56065;52.472;13.380;2023-07-09T09:54:53;49.23;29.02
69009;SHT31;56065;52.472;13.380;2023-07-09T09:57:22;49.74;29.22
69009;SHT31;56065;52.472;13.380;2023-07-09T09:59:47;49.60;29.56
69009;SHT31;56065;52.472;13.380;2023-07-09T10:02:24;49.58;28.91
69009;SHT31;56065;52.472;13.380;2023-07-09T10:04:51;49.34;28.63
69009;SHT31;56065;52.472;13.380;2023-07-09T10:07:32;49.80;28.51
69009;SHT31;56065;52.472;13.380;2023-07-09T10:09:59;50.05;27.74
69009;SHT31;56065;52.472;13.380;2023-07-09T10:18:02;48.96;28.02
69009;SHT31;56065;52.472;13.380;2023-07-09T10:20:44;48.35;30.10
69009;SHT31;56065;52.472;13.380;2023-07-09T10:23:36;48.36;28.60
69009;SHT31;56065;52.472;13.380;2023-07-09T10:26:39;48.79;29.45
69009;SHT31;56065;52.472;13.380;2023-07-09T10:39:47;47.98;29.39
69009;SHT31;56065;52.472;13.380;2023-07-09T10:42:25;48.05;28.84
69009;SHT31;56065;52.472;13.380;2023-07-09T10:44:56;48.16;29.20
69009;SHT31;56065;52.472;13.380;2023-07-09T10:47:33;48.62;29.10
69009;SHT31;56065;52.472;13.380;2023-07-09T10:50:01;49.21;29.20
69009;SHT31;56065;52.472;13.380;2023-07-09T10:52:34;49.55;29.01
69009;SHT31;56065;52.472;13.380;2023-07-09T10:55:17;49.37;28.52
69009;SHT31;56065;52.472;13.380;2023-07-09T10:57:54;49.13;28.28
69009;SHT31;56065;52.472;13.380;2023-07-09T11:00:27;49.21;28.92
69009;SHT31;56065;52.472;13.380;2023-07-09T11:03:04;49.35;28.97
69009;SHT31;56065;52.472;13.380;2023-07-09T11:05:31;49.31;28.31
69009;SHT31;56065;52.472;13.380;2023-07-09T11:08:08;48.94;27.99
69009;SHT31;56065;52.472;13.380;2023-07-09T11:10:44;49.23;28.40
69009;SHT31;56065;52.472;13.380;2023-07-09T11:13:15;48.74;29.31
69009;SHT31;56065;52.472;13.380;2023-07-09T11:15:48;48.60;28.56
69009;SHT31;56065;52.472;13.380;2023-07-09T11:18:26;48.64;28.00
69009;SHT31;56065;52.472;13.380;2023-07-09T11:20:59;48.08;29.06
69009;SHT31;56065;52.472;13.380;2023-07-09T11:23:25;48.01;29.25
69009;SHT31;56065;52.472;13.380;2023-07-09T11:26:15;47.23;28.42
69009;SHT31;56065;52.472;13.380;2023-07-09T11:28:51;47.40;29.33
69009;SHT31;56065;52.472;13.380;2023-07-09T11:31:21;47.17;28.46
69009;SHT31;56065;52.472;13.380;2023-07-09T11:33:49;47.17;29.12
69009;SHT31;56065;52.472;13.380;2023-07-09T11:36:26;47.23;30.44
69009;SHT31;56065;52.472;13.380;2023-07-09T11:38:52;47.20;28.62
69009;SHT31;56065;52.472;13.380;2023-07-09T11:44:19;47.55;29.04
69009;SHT31;56065;52.472;13.380;2023-07-09T11:49:13;46.87;28.99
69009;SHT31;56065;52.472;13.380;2023-07-09T11:51:42;46.82;29.21
69009;SHT31;56065;52.472;13.380;2023-07-09T11:54:11;46.66;30.02
69009;SHT31;56065;52.472;13.380;2023-07-09T11:56:38;46.49;29.51
69009;SHT31;56065;52.472;13.380;2023-07-09T11:59:03;46.35;29.44
69009;SHT31;56065;52.472;13.380;2023-07-09T12:01:44;46.21;30.47
69009;SHT31;56065;52.472;13.380;2023-07-09T12:04:17;46.58;29.95
69009;SHT31;56065;52.472;13.380;2023-07-09T12:06:45;46.82;31.17
69009;SHT31;56065;52.472;13.380;2023-07-09T12:09:20;47.10;30.77
69009;SHT31;56065;52.472;13.380;2023-07-09T12:11:50;46.97;30.45
69009;SHT31;56065;52.472;13.380;2023-07-09T12:14:21;46.97;30.17
69009;SHT31;56065;52.472;13.380;2023-07-09T12:16:48;46.65;29.32
69009;SHT31;56065;52.472;13.380;2023-07-09T12:19:17;46.51;29.95
69009;SHT31;56065;52.472;13.380;2023-07-09T12:21:45;46.59;29.32
69009;SHT31;56065;52.472;13.380;2023-07-09T12:24:18;46.27;29.15
69009;SHT31;56065;52.472;13.380;2023-07-09T12:26:53;46.05;29.42
69009;SHT31;56065;52.472;13.380;2023-07-09T12:29:19;46.01;29.26
69009;SHT31;56065;52.472;13.380;2023-07-09T12:31:45;46.19;29.22
69009;SHT31;56065;52.472;13.380;2023-07-09T12:34:12;46.55;30.44
69009;SHT31;56065;52.472;13.380;2023-07-09T12:36:43;46.62;29.14
69009;SHT31;56065;52.472;13.380;2023-07-09T12:39:10;46.18;29.71
69009;SHT31;56065;52.472;13.380;2023-07-09T12:41:40;46.25;30.15
69009;SHT31;56065;52.472;13.380;2023-07-09T12:44:14;46.02;29.86
69009;SHT31;56065;52.472;13.380;2023-07-09T12:46:40;45.49;30.30
69009;SHT31;56065;52.472;13.380;2023-07-09T12:49:06;45.05;31.19
69009;SHT31;56065;52.472;13.380;2023-07-09T12:51:31;45.21;31.38
69009;SHT31;56065;52.472;13.380;2023-07-09T12:54:23;45.06;30.58
69009;SHT31;56065;52.472;13.380;2023-07-09T12:56:53;45.05;30.53
69009;SHT31;56065;52.472;13.380;2023-07-09T12:59:24;45.17;31.05
69009;SHT31;56065;52.472;13.380;2023-07-09T13:02:03;45.13;30.14
69009;SHT31;56065;52.472;13.380;2023-07-09T13:04:37;44.61;30.04
69009;SHT31;56065;52.472;13.380;2023-07-09T13:07:04;44.42;30.99
69009;SHT31;56065;52.472;13.380;2023-07-09T13:09:30;44.54;31.01
69009;SHT31;56065;52.472;13.380;2023-07-09T13:11:56;44.38;30.95
69009;SHT31;56065;52.472;13.380;2023-07-09T13:14:26;44.01;31.28
69009;SHT31;56065;52.472;13.380;2023-07-09T13:16:52;43.85;30.85
69009;SHT31;56065;52.472;13.380;2023-07-09T13:19:18;43.57;31.47
69009;SHT31;56065;52.472;13.380;2023-07-09T13:21:45;43.53;32.15
69009;SHT31;56065;52.472;13.380;2023-07-09T13:24:19;43.64;31.80
69009;SHT31;56065;52.472;13.380;2023-07-09T13:26:47;43.52;31.50
69009;SHT31;56065;52.472;13.380;2023-07-09T13:29:14;43.64;32.29
69009;SHT31;56065;52.472;13.380;2023-07-09T13:31:41;43.17;31.86
69009;SHT31;56065;52.472;13.380;2023-07-09T13:34:16;42.61;31.88
69009;SHT31;56065;52.472;13.380;2023-07-09T13:36:43;42.71;31.73
69009;SHT31;56065;52.472;13.380;2023-07-09T13:39:10;42.38;31.85
69009;SHT31;56065;52.472;13.380;2023-07-09T13:41:36;41.97;33.92
69009;SHT31;56065;52.472;13.380;2023-07-09T13:44:27;41.69;33.65
69009;SHT31;56065;52.472;13.380;2023-07-09T13:46:54;41.59;33.34
69009;SHT31;56065;52.472;13.380;2023-07-09T13:49:22;41.28;33.01
69009;SHT31;56065;52.472;13.380;2023-07-09T13:51:49;41.18;32.95
69009;SHT31;56065;52.472;13.380;2023-07-09T13:54:18;41.12;33.54
69009;SHT31;56065;52.472;13.380;2023-07-09T13:56:44;40.98;32.94
69009;SHT31;56065;52.472;13.380;2023-07-09T13:59:21;40.92;33.27
69009;SHT31;56065;52.472;13.380;2023-07-09T14:01:48;40.92;34.35
69009;SHT31;56065;52.472;13.380;2023-07-09T14:04:16;40.91;34.24
69009;SHT31;56065;52.472;13.380;2023-07-09T14:06:42;40.85;34.88
69009;SHT31;56065;52.472;13.380;2023-07-09T14:09:10;40.39;33.92
69009;SHT31;56065;52.472;13.380;2023-07-09T14:11:48;40.06;34.89
69009;SHT31;56065;52.472;13.380;2023-07-09T14:14:19;39.54;33.90
69009;SHT31;56065;52.472;13.380;2023-07-09T14:16:46;39.08;34.84
69009;SHT31;56065;52.472;13.380;2023-07-09T14:19:14;39.19;34.76
69009;SHT31;56065;52.472;13.380;2023-07-09T14:21:40;39.34;34.10
69009;SHT31;56065;52.472;13.380;2023-07-09T14:24:23;39.14;35.00
69009;SHT31;56065;52.472;13.380;2023-07-09T14:26:50;39.19;34.94
69009;SHT31;56065;52.472;13.380;2023-07-09T14:29:16;39.15;34.79
69009;SHT31;56065;52.472;13.380;2023-07-09T14:31:43;39.14;35.29
69009;SHT31;56065;52.472;13.380;2023-07-09T14:36:45;38.88;35.17
69009;SHT31;56065;52.472;13.380;2023-07-09T14:39:10;38.81;35.78
69009;SHT31;56065;52.472;13.380;2023-07-09T14:41:36;38.60;35.34
69009;SHT31;56065;52.472;13.380;2023-07-09T14:44:02;38.35;35.23
69009;SHT31;56065;52.472;13.380;2023-07-09T14:46:27;38.12;36.49
69009;SHT31;56065;52.472;13.380;2023-07-09T14:48:53;38.02;36.89
69009;SHT31;56065;52.472;13.380;2023-07-09T14:51:18;37.98;36.09
69009;SHT31;56065;52.472;13.380;2023-07-09T14:53:45;37.82;36.82
69009;SHT31;56065;52.472;13.380;2023-07-09T14:56:13;37.71;36.09
69009;SHT31;56065;52.472;13.380;2023-07-09T14:58:39;37.51;36.76
69009;SHT31;56065;52.472;13.380;2023-07-09T15:01:04;37.34;36.30
69009;SHT31;56065;52.472;13.380;2023-07-09T15:03:30;37.24;36.57
69009;SHT31;56065;52.472;13.380;2023-07-09T15:05:55;37.24;36.29
69009;SHT31;56065;52.472;13.380;2023-07-09T15:08:23;37.18;37.09
69009;SHT31;56065;52.472;13.380;2023-07-09T15:10:50;36.97;37.01
69009;SHT31;56065;52.472;13.380;2023-07-09T15:13:31;36.60;37.23
69009;SHT31;56065;52.472;13.380;2023-07-09T15:15:57;36.42;37.24
69009;SHT31;56065;52.472;13.380;2023-07-09T15:18:23;36.18;37.76
69009;SHT31;56065;52.472;13.380;2023-07-09T15:20:57;35.91;38.15
69009;SHT31;56065;52.472;13.380;2023-07-09T15:23:23;35.82;38.79
69009;SHT31;56065;52.472;13.380;2023-07-09T15:25:49;35.73;38.48
69009;SHT31;56065;52.472;13.380;2023-07-09T15:28:15;35.55;38.47
69009;SHT31;56065;52.472;13.380;2023-07-09T15:30:41;35.41;38.53
69009;SHT31;56065;52.472;13.380;2023-07-09T15:33:13;35.31;39.00
69009;SHT31;56065;52.472;13.380;2023-07-09T15:35:39;35.25;40.11
69009;SHT31;56065;52.472;13.380;2023-07-09T15:38:20;35.26;40.76
69009;SHT31;56065;52.472;13.380;2023-07-09T15:40:47;35.21;40.42
69009;SHT31;56065;52.472;13.380;2023-07-09T15:43:14;34.96;39.24
69009;SHT31;56065;52.472;13.380;2023-07-09T15:45:43;34.92;39.48
69009;SHT31;56065;52.472;13.380;2023-07-09T15:48:33;34.76;40.55
69009;SHT31;56065;52.472;13.380;2023-07-09T15:51:01;34.78;40.02
69009;SHT31;56065;52.472;13.380;2023-07-09T15:53:26;34.68;41.62
69009;SHT31;56065;52.472;13.380;2023-07-09T15:55:56;34.62;41.58
69009;SHT31;56065;52.472;13.380;2023-07-09T15:58:26;34.45;40.68